createdAt,value
2023-01-30T00:01:00.294Z,24.13
2023-01-30T00:03:27.471Z,25.40
2023-01-30T00:05:54.626Z,28.77
2023-01-30T00:08:22.118Z,31.23
2023-01-30T00:10:49.337Z,21.13
2023-01-30T00:13:16.929Z,34.73
2023-01-30T00:15:44.404Z,33.20
2023-01-30T00:18:11.720Z,25.07
2023-01-30T00:20:38.895Z,34.87
2023-01-30T00:23:06.506Z,36.73
2023-01-30T00:25:33.814Z,30.03
2023-01-30T00:28:01.546Z,32.67
2023-01-30T00:30:28.786Z,36.43
2023-01-30T00:32:59.712Z,33.17
2023-01-30T00:35:28.779Z,35.03
2023-01-30T00:37:59.380Z,35.33
2023-01-30T00:40:27.264Z,31.43
2023-01-30T00:43:13.668Z,31.80
2023-01-30T00:46:00.937Z,26.63
2023-01-30T00:48:28.597Z,23.67
2023-01-30T00:50:55.731Z,21.03
2023-01-30T00:53:22.901Z,23.57
2023-01-30T00:55:51.664Z,20.63
2023-01-30T00:58:19.033Z,22.33
2023-01-30T01:00:46.209Z,19.83
2023-01-30T01:03:13.493Z,20.93
2023-01-30T01:05:40.696Z,25.87
2023-01-30T01:08:07.856Z,27.93
2023-01-30T01:10:34.987Z,24.67
2023-01-30T01:13:02.588Z,22.47
2023-01-30T01:15:30.190Z,26.43
2023-01-30T01:17:57.452Z,26.70
2023-01-30T01:20:24.659Z,27.53
2023-01-30T01:22:55.782Z,29.17
2023-01-30T01:25:23.611Z,29.50
2023-01-30T01:27:51.221Z,26.90
2023-01-30T01:30:18.418Z,27.73
2023-01-30T01:32:45.671Z,20.70
2023-01-30T01:35:12.839Z,29.57
2023-01-30T01:37:40.014Z,26.60
2023-01-30T01:40:26.471Z,23.97
2023-01-30T01:42:53.627Z,33.47
2023-01-30T01:45:24.540Z,28.40
2023-01-30T01:48:03.323Z,32.30
2023-01-30T01:50:48.916Z,30.17
2023-01-30T01:53:18.265Z,32.40
2023-01-30T01:55:49.167Z,27.90
2023-01-30T01:58:23.049Z,34.20
2023-01-30T02:00:50.405Z,28.90
2023-01-30T02:03:20.259Z,27.40
2023-01-30T02:05:49.320Z,31.63
2023-01-30T02:08:18.655Z,31.33
2023-01-30T02:10:55.408Z,27.77
2023-01-30T02:13:22.652Z,34.07
2023-01-30T02:15:50.117Z,24.77
2023-01-30T02:18:17.629Z,22.70
2023-01-30T02:20:47.763Z,27.33
2023-01-30T02:23:43.979Z,26.63
2023-01-30T02:26:29.720Z,25.07
2023-01-30T02:29:08.875Z,28.53
2023-01-30T02:31:56.248Z,27.70
2023-01-30T02:34:41.946Z,33.43
2023-01-30T02:37:15.219Z,27.40
2023-01-30T02:39:48.216Z,28.47
2023-01-30T02:42:35.627Z,25.10
2023-01-30T02:45:07.363Z,23.17
2023-01-30T02:47:43.187Z,24.60
2023-01-30T02:50:27.722Z,26.43
2023-01-30T02:52:54.964Z,20.33
2023-01-30T02:55:23.389Z,20.23
2023-01-30T02:57:50.809Z,23.77
2023-01-30T03:00:21.505Z,27.07
2023-01-30T03:03:06.965Z,27.53
2023-01-30T03:05:52.258Z,29.07
2023-01-30T03:08:43.495Z,28.37
2023-01-30T03:11:11.344Z,18.60
2023-01-30T03:13:56.930Z,23.90
2023-01-30T03:16:31.788Z,27.87
2023-01-30T03:19:00.891Z,20.40
2023-01-30T03:21:28.061Z,21.47
2023-01-30T03:23:55.190Z,24.77
2023-01-30T03:26:25.586Z,22.33
2023-01-30T03:28:53.683Z,19.47
2023-01-30T03:31:20.987Z,23.97
2023-01-30T03:33:48.264Z,22.60
2023-01-30T03:36:15.497Z,19.50
2023-01-30T03:38:42.683Z,19.87
2023-01-30T03:41:10.030Z,25.40
2023-01-30T03:43:37.163Z,19.13
2023-01-30T03:46:04.329Z,21.27
2023-01-30T03:48:31.660Z,19.77
2023-01-30T03:50:58.785Z,21.33
2023-01-30T03:53:26.135Z,25.77
2023-01-30T03:55:53.336Z,24.23
2023-01-30T03:58:20.453Z,22.43
2023-01-30T04:00:47.590Z,24.10
2023-01-30T04:03:15.756Z,25.37
2023-01-30T04:05:45.770Z,18.13
2023-01-30T04:08:12.915Z,19.37
2023-01-30T04:10:40.070Z,16.30
2023-01-30T04:13:07.192Z,18.20
2023-01-30T04:15:34.563Z,15.57
2023-01-30T04:18:01.833Z,17.17
2023-01-30T04:20:28.994Z,13.87
2023-01-30T04:22:58.253Z,12.33
2023-01-30T04:25:25.415Z,15.83
2023-01-30T04:27:52.588Z,15.67
2023-01-30T04:30:19.822Z,15.97
2023-01-30T04:32:47.047Z,18.23
2023-01-30T04:35:14.191Z,20.10
2023-01-30T04:37:41.359Z,19.90
2023-01-30T04:40:08.732Z,14.60
2023-01-30T04:42:35.854Z,15.83
2023-01-30T04:45:02.997Z,15.10
2023-01-30T04:47:30.217Z,19.00
2023-01-30T04:49:57.492Z,14.53
2023-01-30T04:52:24.599Z,15.73
2023-01-30T04:54:51.840Z,22.90
2023-01-30T04:57:18.987Z,19.37
2023-01-30T04:59:46.124Z,14.97
2023-01-30T05:02:13.391Z,17.87
2023-01-30T05:04:40.559Z,18.17
2023-01-30T05:07:07.679Z,17.57
2023-01-30T05:09:34.848Z,20.10
2023-01-30T05:12:01.984Z,22.47
2023-01-30T05:14:29.103Z,25.67
2023-01-30T05:16:56.291Z,19.27
2023-01-30T05:19:23.419Z,23.77
2023-01-30T05:21:50.566Z,24.97
2023-01-30T05:24:17.683Z,22.93
2023-01-30T05:26:44.915Z,18.27
2023-01-30T05:29:12.086Z,18.20
2023-01-30T05:31:39.405Z,19.70
2023-01-30T05:34:06.569Z,16.33
2023-01-30T05:36:33.694Z,17.70
2023-01-30T05:39:00.844Z,24.60
2023-01-30T05:41:27.959Z,16.63
2023-01-30T05:43:55.076Z,23.03
2023-01-30T05:46:22.311Z,17.93
2023-01-30T05:48:49.477Z,18.70
2023-01-30T05:51:21.071Z,13.83
2023-01-30T05:53:48.433Z,18.90
2023-01-30T05:56:15.903Z,15.40
2023-01-30T05:58:43.360Z,14.63
2023-01-30T06:01:12.569Z,19.00
2023-01-30T06:03:39.987Z,13.07
2023-01-30T06:06:07.655Z,20.60
2023-01-30T06:08:35.032Z,21.37
2023-01-30T06:11:03.121Z,19.17
2023-01-30T06:13:30.260Z,19.37
2023-01-30T06:15:57.483Z,14.33
2023-01-30T06:18:24.618Z,17.67
2023-01-30T06:20:52.715Z,16.70
2023-01-30T06:23:20.131Z,19.60
2023-01-30T06:25:48.137Z,15.10
2023-01-30T06:28:15.902Z,16.20
2023-01-30T06:30:43.264Z,18.90
2023-01-30T06:33:10.880Z,19.47
2023-01-30T06:35:38.774Z,17.83
2023-01-30T06:38:06.308Z,20.40
2023-01-30T06:40:33.540Z,20.17
2023-01-30T06:43:00.704Z,19.40
2023-01-30T06:45:27.860Z,20.10
2023-01-30T06:47:55.663Z,13.43
2023-01-30T06:50:24.275Z,16.67
2023-01-30T06:52:52.007Z,19.17
2023-01-30T06:55:23.116Z,22.83
2023-01-30T06:57:50.948Z,14.90
2023-01-30T07:00:19.803Z,18.57
2023-01-30T07:02:47.406Z,15.60
2023-01-30T07:05:14.674Z,12.93
2023-01-30T07:07:41.800Z,13.43
2023-01-30T07:10:09.582Z,14.43
2023-01-30T07:12:37.046Z,12.50
2023-01-30T07:15:04.761Z,17.60
2023-01-30T07:17:31.915Z,14.83
2023-01-30T07:19:59.189Z,10.37
2023-01-30T07:22:26.663Z,12.77
2023-01-30T07:24:53.863Z,14.23
2023-01-30T07:27:20.994Z,15.00
2023-01-30T07:29:48.111Z,12.80
2023-01-30T07:32:18.374Z,13.13
2023-01-30T07:34:45.589Z,13.27
2023-01-30T07:37:13.000Z,16.77
2023-01-30T07:39:40.148Z,15.30
2023-01-30T07:42:07.327Z,14.77
2023-01-30T07:44:34.434Z,17.40
2023-01-30T07:47:02.124Z,18.33
2023-01-30T07:49:29.435Z,20.40
2023-01-30T07:51:56.549Z,11.07
2023-01-30T07:54:23.933Z,15.10
2023-01-30T07:56:51.056Z,16.10
2023-01-30T07:59:18.175Z,12.53
2023-01-30T08:01:45.423Z,12.80
2023-01-30T08:04:12.611Z,11.70
2023-01-30T08:06:39.861Z,14.20
2023-01-30T08:09:07.447Z,15.10
2023-01-30T08:11:35.087Z,15.23
2023-01-30T08:14:02.405Z,13.80
2023-01-30T08:16:32.166Z,19.70
2023-01-30T08:18:59.388Z,13.80
2023-01-30T08:21:26.569Z,18.70
2023-01-30T08:23:53.801Z,15.27
2023-01-30T08:26:21.005Z,12.87
2023-01-30T08:28:48.342Z,16.27
2023-01-30T08:31:16.119Z,14.47
2023-01-30T08:33:43.319Z,15.83
2023-01-30T08:36:10.485Z,16.23
2023-01-30T08:38:37.697Z,19.27
2023-01-30T08:41:05.386Z,15.07
2023-01-30T08:43:32.500Z,12.93
2023-01-30T08:45:59.671Z,16.80
2023-01-30T08:48:29.760Z,10.90
2023-01-30T08:50:57.665Z,21.03
2023-01-30T08:53:24.882Z,16.93
2023-01-30T08:55:52.715Z,19.83
2023-01-30T08:58:20.823Z,18.60
2023-01-30T09:00:49.431Z,14.33
2023-01-30T09:03:17.240Z,14.07
2023-01-30T09:05:44.440Z,14.23
2023-01-30T09:08:11.624Z,18.87
2023-01-30T09:10:38.772Z,13.87
2023-01-30T09:13:06.050Z,17.17
2023-01-30T09:15:33.566Z,13.57
2023-01-30T09:18:00.786Z,10.83
2023-01-30T09:20:27.987Z,11.53
2023-01-30T09:22:55.181Z,9.90
2023-01-30T09:25:22.402Z,11.67
2023-01-30T09:27:50.239Z,11.17
2023-01-30T09:30:18.469Z,16.03
2023-01-30T09:32:45.978Z,16.50
2023-01-30T09:35:13.143Z,16.23
2023-01-30T09:37:47.139Z,16.67
2023-01-30T09:40:15.840Z,15.57
2023-01-30T09:42:50.190Z,11.50
2023-01-30T09:45:26.367Z,16.50
2023-01-30T09:48:02.743Z,11.23
2023-01-30T09:50:39.100Z,14.93
2023-01-30T09:53:27.690Z,14.37
2023-01-30T09:55:58.126Z,12.60
2023-01-30T09:58:26.175Z,12.00
2023-01-30T10:00:55.436Z,12.10
2023-01-30T10:03:29.506Z,13.50
2023-01-30T10:05:59.886Z,13.27
2023-01-30T10:08:33.175Z,15.13
2023-01-30T10:11:13.137Z,15.27
2023-01-30T10:14:05.146Z,12.50
2023-01-30T10:16:39.091Z,11.67
2023-01-30T10:19:33.578Z,9.73
2023-01-30T10:22:22.454Z,13.10
2023-01-30T10:25:02.548Z,13.40
2023-01-30T10:27:31.332Z,12.03
2023-01-30T10:29:59.857Z,10.90
2023-01-30T10:32:30.173Z,11.47
2023-01-30T10:34:58.599Z,11.80
2023-01-30T10:37:30.327Z,11.27
2023-01-30T10:40:00.702Z,9.33
2023-01-30T10:42:45.903Z,9.03
2023-01-30T10:45:15.846Z,10.97
2023-01-30T10:47:53.573Z,14.23
2023-01-30T10:50:24.245Z,13.20
2023-01-30T10:53:00.803Z,9.67
2023-01-30T10:55:36.847Z,12.43
2023-01-30T10:58:09.440Z,12.93
2023-01-30T11:00:41.451Z,9.50
2023-01-30T11:03:14.728Z,8.23
2023-01-30T11:05:51.972Z,10.90
2023-01-30T11:08:24.222Z,10.07
2023-01-30T11:10:52.258Z,8.33
2023-01-30T11:13:20.970Z,12.80
2023-01-30T11:15:50.644Z,9.23
2023-01-30T11:19:17.600Z,12.23
2023-01-30T11:21:10.357Z,8.73
2023-01-30T11:23:37.556Z,10.53
2023-01-30T11:26:11.217Z,11.97
2023-01-30T11:28:43.039Z,10.47
2023-01-30T11:31:40.326Z,9.53
2023-01-30T11:34:13.754Z,9.50
2023-01-30T11:36:41.992Z,12.10
2023-01-30T11:39:18.743Z,8.93
2023-01-30T11:41:58.644Z,7.00
2023-01-30T11:44:34.056Z,7.93
2023-01-30T11:47:02.855Z,10.17
2023-01-30T11:50:03.702Z,8.20
2023-01-30T11:52:36.921Z,10.37
2023-01-30T11:55:08.526Z,10.17
2023-01-30T11:57:43.616Z,12.43
2023-01-30T12:00:18.543Z,11.50
2023-01-30T12:02:48.068Z,10.07
2023-01-30T12:05:23.316Z,9.10
2023-01-30T12:07:52.015Z,10.13
2023-01-30T12:10:25.469Z,10.27
2023-01-30T12:12:54.654Z,8.17
2023-01-30T12:15:28.009Z,6.30
2023-01-30T12:18:10.983Z,8.63
2023-01-30T12:20:50.424Z,10.93
2023-01-30T12:23:35.885Z,11.67
2023-01-30T12:26:03.030Z,8.13
2023-01-30T12:28:36.225Z,8.90
2023-01-30T12:31:07.549Z,11.00
2023-01-30T12:33:36.125Z,9.63
2023-01-30T12:36:09.118Z,11.13
2023-01-30T12:38:47.115Z,11.60
2023-01-30T12:41:43.542Z,12.83
2023-01-30T12:44:29.448Z,8.77
2023-01-30T12:47:02.369Z,11.27
2023-01-30T12:49:49.781Z,11.97
2023-01-30T12:52:28.837Z,12.07
2023-01-30T12:55:18.967Z,12.10
2023-01-30T12:57:49.735Z,9.97
2023-01-30T13:00:26.992Z,9.70
2023-01-30T13:03:03.423Z,13.17
2023-01-30T13:05:42.876Z,10.43
2023-01-30T13:08:15.568Z,10.43
2023-01-30T13:10:49.731Z,10.53
2023-01-30T13:13:26.111Z,11.60
2023-01-30T13:16:13.586Z,11.87
2023-01-30T13:18:40.706Z,10.47
2023-01-30T13:21:11.346Z,7.63
2023-01-30T13:23:47.691Z,11.50
2023-01-30T13:26:18.671Z,11.93
2023-01-30T13:28:54.044Z,12.17
2023-01-30T13:31:24.257Z,9.90
2023-01-30T13:33:56.162Z,10.53
2023-01-30T13:36:34.657Z,10.43
2023-01-30T13:39:28.101Z,11.57
2023-01-30T13:41:57.473Z,13.90
2023-01-30T13:44:30.749Z,10.37
2023-01-30T13:47:00.046Z,11.47
2023-01-30T13:49:38.885Z,7.10
2023-01-30T13:52:11.025Z,10.50
2023-01-30T13:54:47.296Z,10.50
2023-01-30T13:57:14.479Z,11.43
2023-01-30T13:59:50.664Z,12.10
2023-01-30T14:02:19.036Z,9.67
2023-01-30T14:04:47.924Z,14.07
2023-01-30T14:07:33.894Z,9.53
2023-01-30T14:10:10.375Z,8.77
2023-01-30T14:12:55.852Z,11.17
2023-01-30T14:15:29.396Z,11.17
2023-01-30T14:18:00.121Z,8.20
2023-01-30T14:20:29.168Z,9.27
2023-01-30T14:22:57.576Z,10.13
2023-01-30T14:25:30.756Z,12.77
2023-01-30T14:28:00.697Z,6.70
2023-01-30T14:30:47.839Z,8.53
2023-01-30T14:33:24.174Z,10.95
2023-01-30T14:36:03.367Z,8.40
2023-01-30T14:38:34.014Z,9.33
2023-01-30T14:41:01.129Z,11.07
2023-01-30T14:43:37.387Z,5.17
2023-01-30T14:46:24.519Z,9.07
2023-01-30T14:49:05.163Z,9.93
2023-01-30T14:51:43.342Z,7.73
2023-01-30T14:54:20.704Z,7.93
2023-01-30T14:56:49.076Z,8.53
2023-01-30T14:59:16.184Z,7.43
2023-01-30T15:02:02.412Z,7.43
2023-01-30T15:04:49.794Z,5.27
2023-01-30T15:07:25.570Z,6.53
2023-01-30T15:09:55.907Z,6.00
2023-01-30T15:12:40.587Z,9.33
2023-01-30T15:15:25.685Z,9.57
2023-01-30T15:18:08.759Z,7.83
2023-01-30T15:20:38.141Z,7.30
2023-01-30T15:23:14.462Z,9.77
2023-01-30T15:25:47.579Z,7.93
2023-01-30T15:28:41.256Z,13.10
2023-01-30T15:31:20.292Z,9.73
2023-01-30T15:33:49.021Z,8.97
2023-01-30T15:36:30.770Z,7.33
2023-01-30T15:39:17.477Z,7.47
2023-01-30T15:41:44.717Z,9.17
2023-01-30T15:44:14.936Z,8.20
2023-01-30T15:46:45.045Z,14.87
2023-01-30T15:49:20.161Z,9.07
2023-01-30T15:51:47.593Z,9.60
2023-01-30T15:54:23.505Z,8.67
2023-01-30T15:56:51.004Z,8.50
2023-01-30T15:59:31.566Z,5.40
2023-01-30T16:02:03.048Z,7.17
2023-01-30T16:04:30.622Z,5.57
2023-01-30T16:06:57.745Z,7.93
2023-01-30T16:09:26.211Z,6.60
2023-01-30T16:11:53.392Z,6.60
2023-01-30T16:14:21.575Z,7.17
2023-01-30T16:16:54.400Z,9.30
2023-01-30T16:19:21.578Z,8.07
2023-01-30T16:21:48.882Z,8.90
2023-01-30T16:24:22.200Z,8.13
2023-01-30T16:26:51.025Z,9.10
2023-01-30T16:29:23.050Z,7.60
2023-01-30T16:31:52.423Z,8.53
2023-01-30T16:34:49.319Z,8.13
2023-01-30T16:37:19.332Z,8.67
2023-01-30T16:39:47.791Z,8.00
2023-01-30T16:42:23.878Z,7.87
2023-01-30T16:44:50.983Z,9.23
2023-01-30T16:47:24.155Z,6.97
2023-01-30T16:49:52.784Z,7.97
2023-01-30T16:52:26.199Z,9.27
2023-01-30T16:54:54.857Z,6.77
2023-01-30T16:57:41.762Z,7.57
2023-01-30T17:00:25.993Z,9.27
2023-01-30T17:03:03.456Z,6.63
2023-01-30T17:05:31.876Z,7.23
2023-01-30T17:08:00.465Z,4.27
2023-01-30T17:10:40.277Z,9.97
2023-01-30T17:13:27.533Z,7.43
2023-01-30T17:15:55.238Z,6.57
2023-01-30T17:18:22.366Z,5.03
2023-01-30T17:20:51.241Z,9.33
2023-01-30T17:23:20.307Z,6.33
2023-01-30T17:25:48.786Z,9.63
2023-01-30T17:28:21.529Z,6.47
2023-01-30T17:30:50.047Z,7.77
2023-01-30T17:33:17.278Z,9.03
2023-01-30T17:35:45.260Z,9.47
2023-01-30T17:38:12.841Z,7.57
2023-01-30T17:40:40.055Z,10.27
2023-01-30T17:43:07.247Z,8.10
2023-01-30T17:45:34.443Z,9.20
2023-01-30T17:48:01.890Z,9.17
2023-01-30T17:50:29.040Z,6.97
2023-01-30T17:52:56.280Z,10.43
2023-01-30T17:55:23.507Z,7.70
2023-01-30T17:57:50.696Z,7.33
2023-01-30T18:00:20.119Z,8.30
2023-01-30T18:02:47.738Z,6.57
2023-01-30T18:05:15.227Z,7.50
2023-01-30T18:07:42.643Z,7.47
2023-01-30T18:10:13.949Z,7.33
2023-01-30T18:12:41.073Z,9.07
2023-01-30T18:15:08.614Z,6.07
2023-01-30T18:17:38.427Z,9.27
2023-01-30T18:20:05.679Z,5.93
2023-01-30T18:22:32.880Z,6.43
2023-01-30T18:25:00.003Z,7.63
2023-01-30T18:27:27.119Z,6.20
2023-01-30T18:29:54.318Z,11.70
2023-01-30T18:32:21.472Z,5.43
2023-01-30T18:34:49.761Z,8.57
2023-01-30T18:37:16.926Z,8.90
2023-01-30T18:39:44.140Z,8.60
2023-01-30T18:42:11.293Z,7.63
2023-01-30T18:44:38.469Z,7.07
2023-01-30T18:47:05.590Z,6.70
2023-01-30T18:49:32.703Z,7.23
2023-01-30T18:51:59.876Z,8.30
2023-01-30T18:54:26.997Z,7.30
2023-01-30T18:56:54.180Z,6.37
2023-01-30T18:59:21.400Z,6.23
2023-01-30T19:01:48.583Z,7.80
2023-01-30T19:04:15.888Z,6.40
2023-01-30T19:06:44.057Z,12.53
2023-01-30T19:09:15.079Z,8.77
2023-01-30T19:12:01.176Z,6.03
2023-01-30T19:14:28.297Z,9.90
2023-01-30T19:16:55.557Z,5.53
2023-01-30T19:19:22.838Z,6.07
2023-01-30T19:21:52.144Z,7.53
2023-01-30T19:24:19.458Z,6.37
2023-01-30T19:26:46.687Z,6.10
2023-01-30T19:29:13.871Z,4.67
2023-01-30T19:31:41.583Z,8.90
2023-01-30T19:34:09.245Z,5.47
2023-01-30T19:36:36.773Z,4.93
2023-01-30T19:39:05.603Z,8.37
2023-01-30T19:41:34.493Z,8.73
2023-01-30T19:44:02.469Z,9.50
2023-01-30T19:46:30.039Z,9.37
2023-01-30T19:48:57.363Z,7.57
2023-01-30T19:51:28.889Z,7.97
2023-01-30T19:53:57.282Z,8.67
2023-01-30T19:56:25.405Z,12.20
2023-01-30T19:58:54.768Z,8.10
2023-01-30T20:01:22.933Z,6.93
2023-01-30T20:03:50.283Z,10.67
2023-01-30T20:06:18.546Z,3.93
2023-01-30T20:08:47.644Z,7.17
2023-01-30T20:11:15.832Z,8.00
2023-01-30T20:13:43.782Z,6.73
2023-01-30T20:16:12.572Z,9.30
2023-01-30T20:18:40.220Z,9.10
2023-01-30T20:21:10.349Z,7.77
2023-01-30T20:23:38.184Z,8.50
2023-01-30T20:26:07.374Z,7.43
2023-01-30T20:28:35.151Z,9.77
2023-01-30T20:31:07.729Z,9.37
2023-01-30T20:33:34.976Z,12.50
2023-01-30T20:36:02.650Z,11.00
2023-01-30T20:38:33.616Z,16.03
2023-01-30T20:41:05.240Z,9.70
2023-01-30T20:43:36.472Z,11.73
2023-01-30T20:46:04.770Z,8.60
2023-01-30T20:48:31.968Z,9.03
2023-01-30T20:51:03.112Z,6.20
2023-01-30T20:53:30.378Z,7.13
2023-01-30T20:55:58.492Z,7.60
2023-01-30T20:58:26.215Z,8.60
2023-01-30T21:00:53.416Z,9.10
2023-01-30T21:03:20.598Z,9.53
2023-01-30T21:05:56.129Z,9.73
2023-01-30T21:08:23.250Z,8.70
2023-01-30T21:10:50.419Z,9.47
2023-01-30T21:13:17.591Z,7.73
2023-01-30T21:15:44.736Z,8.83
2023-01-30T21:18:12.533Z,10.50
2023-01-30T21:20:39.919Z,8.27
2023-01-30T21:23:07.588Z,10.27
2023-01-30T21:25:36.104Z,8.97
2023-01-30T21:28:03.237Z,8.13
2023-01-30T21:30:30.391Z,7.83
2023-01-30T21:32:58.455Z,7.80
2023-01-30T21:35:25.708Z,8.77
2023-01-30T21:38:11.500Z,7.97
2023-01-30T21:40:57.632Z,9.37
2023-01-30T21:43:24.781Z,7.53
2023-01-30T21:45:57.722Z,8.30
2023-01-30T21:48:24.913Z,7.10
2023-01-30T21:50:52.105Z,8.40
2023-01-30T21:53:19.258Z,10.10
2023-01-30T21:55:53.090Z,6.73
2023-01-30T21:58:20.603Z,8.80
2023-01-30T22:00:47.781Z,8.03
2023-01-30T22:03:14.981Z,11.80
2023-01-30T22:05:45.417Z,10.43
2023-01-30T22:08:12.569Z,11.07
2023-01-30T22:10:39.900Z,6.83
2023-01-30T22:13:07.039Z,7.30
2023-01-30T22:15:34.204Z,8.67
2023-01-30T22:18:02.787Z,8.70
2023-01-30T22:20:29.989Z,7.23
2023-01-30T22:22:57.196Z,8.97
2023-01-30T22:25:24.308Z,7.60
2023-01-30T22:27:51.789Z,8.83
2023-01-30T22:30:19.036Z,7.57
2023-01-30T22:32:46.193Z,10.23
2023-01-30T22:35:13.307Z,3.17
2023-01-30T22:37:40.488Z,7.43
2023-01-30T22:40:07.937Z,9.20
2023-01-30T22:42:35.110Z,9.73
2023-01-30T22:45:02.264Z,7.60
2023-01-30T22:47:29.398Z,8.27
2023-01-30T22:49:56.515Z,8.03
2023-01-30T22:52:23.665Z,7.17
2023-01-30T22:54:50.783Z,7.00
2023-01-30T22:57:17.908Z,7.83
2023-01-30T22:59:45.119Z,5.57
2023-01-30T23:02:12.349Z,4.87
2023-01-30T23:04:39.507Z,5.53
2023-01-30T23:07:06.654Z,9.00
2023-01-30T23:09:33.812Z,7.73
2023-01-30T23:12:19.563Z,6.10
2023-01-30T23:14:46.690Z,8.00
2023-01-30T23:17:32.590Z,7.87
2023-01-30T23:19:59.725Z,6.97
2023-01-30T23:22:26.844Z,5.13
2023-01-30T23:24:54.011Z,6.30
2023-01-30T23:27:21.445Z,7.90
2023-01-30T23:29:48.640Z,7.67
2023-01-30T23:32:19.042Z,6.43
2023-01-30T23:34:46.677Z,8.77
2023-01-30T23:37:13.813Z,6.57
2023-01-30T23:39:40.977Z,9.83
2023-01-30T23:42:08.152Z,7.40
2023-01-30T23:44:35.494Z,6.03
2023-01-30T23:47:02.645Z,5.43
2023-01-30T23:49:29.781Z,9.90
2023-01-30T23:51:57.243Z,5.90
2023-01-30T23:54:24.977Z,10.03
2023-01-30T23:56:52.114Z,5.53
2023-01-30T23:59:19.274Z,7.50
